sensor_id;sensor_type;location;lat;lon;timestamp;P1;durP1;ratioP1;P2;durP2;ratioP2
12715;SDS011;6422;49.938;9.124;2024-02-26T00:00:08;1.40;;;0.63;;
12715;SDS011;6422;49.938;9.124;2024-02-26T00:02:35;3.27;;;0.83;;
12715;SDS011;6422;49.938;9.124;2024-02-26T00:05:03;0.80;;;0.70;;
12715;SDS011;6422;49.938;9.124;2024-02-26T00:07:28;1.10;;;0.60;;
12715;SDS011;6422;49.938;9.124;2024-02-26T00:09:53;1.30;;;0.77;;
12715;SDS011;6422;49.938;9.124;2024-02-26T00:12:18;2.45;;;1.02;;
12715;SDS011;6422;49.938;9.124;2024-02-26T00:14:44;1.17;;;0.90;;
12715;SDS011;6422;49.938;9.124;2024-02-26T00:17:11;0.70;;;0.50;;
12715;SDS011;6422;49.938;9.124;2024-02-26T00:19:36;2.50;;;1.07;;
12715;SDS011;6422;49.938;9.124;2024-02-26T00:22:01;2.43;;;1.27;;
12715;SDS011;6422;49.938;9.124;2024-02-26T00:24:26;1.43;;;0.90;;
12715;SDS011;6422;49.938;9.124;2024-02-26T00:26:51;0.80;;;0.63;;
12715;SDS011;6422;49.938;9.124;2024-02-26T00:29:19;1.63;;;0.73;;
12715;SDS011;6422;49.938;9.124;2024-02-26T00:31:44;3.07;;;1.37;;
12715;SDS011;6422;49.938;9.124;2024-02-26T00:34:10;2.37;;;0.87;;
12715;SDS011;6422;49.938;9.124;2024-02-26T00:36:35;1.43;;;0.80;;
12715;SDS011;6422;49.938;9.124;2024-02-26T00:39:00;1.33;;;1.23;;
12715;SDS011;6422;49.938;9.124;2024-02-26T00:41:25;2.35;;;0.65;;
12715;SDS011;6422;49.938;9.124;2024-02-26T00:43:50;3.42;;;1.30;;
12715;SDS011;6422;49.938;9.124;2024-02-26T00:46:15;1.63;;;0.60;;
12715;SDS011;6422;49.938;9.124;2024-02-26T00:48:40;1.00;;;0.83;;
12715;SDS011;6422;49.938;9.124;2024-02-26T00:51:06;1.05;;;0.70;;
12715;SDS011;6422;49.938;9.124;2024-02-26T00:53:31;1.20;;;0.80;;
12715;SDS011;6422;49.938;9.124;2024-02-26T00:55:56;1.57;;;1.03;;
12715;SDS011;6422;49.938;9.124;2024-02-26T00:58:23;2.30;;;1.03;;
12715;SDS011;6422;49.938;9.124;2024-02-26T01:00:48;1.53;;;0.90;;
12715;SDS011;6422;49.938;9.124;2024-02-26T01:03:14;1.00;;;0.70;;
12715;SDS011;6422;49.938;9.124;2024-02-26T01:05:39;1.37;;;1.00;;
12715;SDS011;6422;49.938;9.124;2024-02-26T01:08:04;3.00;;;1.73;;
12715;SDS011;6422;49.938;9.124;2024-02-26T01:10:29;1.10;;;0.57;;
12715;SDS011;6422;49.938;9.124;2024-02-26T01:12:54;1.10;;;0.67;;
12715;SDS011;6422;49.938;9.124;2024-02-26T01:15:19;0.98;;;0.65;;
12715;SDS011;6422;49.938;9.124;2024-02-26T01:17:49;1.00;;;0.73;;
12715;SDS011;6422;49.938;9.124;2024-02-26T01:20:14;0.90;;;0.70;;
12715;SDS011;6422;49.938;9.124;2024-02-26T01:22:39;6.60;;;1.10;;
12715;SDS011;6422;49.938;9.124;2024-02-26T01:25:05;0.90;;;0.77;;
12715;SDS011;6422;49.938;9.124;2024-02-26T01:27:31;0.93;;;0.53;;
12715;SDS011;6422;49.938;9.124;2024-02-26T01:29:56;0.80;;;0.73;;
12715;SDS011;6422;49.938;9.124;2024-02-26T01:32:21;2.30;;;0.98;;
12715;SDS011;6422;49.938;9.124;2024-02-26T01:34:46;0.83;;;0.70;;
12715;SDS011;6422;49.938;9.124;2024-02-26T01:37:11;1.45;;;0.75;;
12715;SDS011;6422;49.938;9.124;2024-02-26T01:39:36;1.47;;;1.10;;
12715;SDS011;6422;49.938;9.124;2024-02-26T01:42:02;1.20;;;0.80;;
12715;SDS011;6422;49.938;9.124;2024-02-26T01:44:27;1.67;;;0.80;;
12715;SDS011;6422;49.938;9.124;2024-02-26T01:46:52;1.63;;;0.77;;
12715;SDS011;6422;49.938;9.124;2024-02-26T01:49:18;1.10;;;0.60;;
12715;SDS011;6422;49.938;9.124;2024-02-26T01:51:43;2.20;;;1.40;;
12715;SDS011;6422;49.938;9.124;2024-02-26T01:54:08;2.13;;;0.80;;
12715;SDS011;6422;49.938;9.124;2024-02-26T01:56:34;2.13;;;0.80;;
12715;SDS011;6422;49.938;9.124;2024-02-26T01:59:00;0.80;;;0.70;;
12715;SDS011;6422;49.938;9.124;2024-02-26T02:01:27;2.20;;;1.27;;
12715;SDS011;6422;49.938;9.124;2024-02-26T02:03:53;3.40;;;1.43;;
12715;SDS011;6422;49.938;9.124;2024-02-26T02:06:18;0.80;;;0.60;;
12715;SDS011;6422;49.938;9.124;2024-02-26T02:08:43;1.37;;;0.77;;
12715;SDS011;6422;49.938;9.124;2024-02-26T02:11:09;2.97;;;1.27;;
12715;SDS011;6422;49.938;9.124;2024-02-26T02:13:36;1.00;;;0.90;;
12715;SDS011;6422;49.938;9.124;2024-02-26T02:16:01;1.23;;;0.60;;
12715;SDS011;6422;49.938;9.124;2024-02-26T02:18:26;1.50;;;1.00;;
12715;SDS011;6422;49.938;9.124;2024-02-26T02:20:53;1.20;;;1.00;;
12715;SDS011;6422;49.938;9.124;2024-02-26T02:23:18;0.97;;;0.60;;
12715;SDS011;6422;49.938;9.124;2024-02-26T02:25:43;0.77;;;0.67;;
12715;SDS011;6422;49.938;9.124;2024-02-26T02:28:09;2.20;;;0.70;;
12715;SDS011;6422;49.938;9.124;2024-02-26T02:30:34;1.00;;;0.90;;
12715;SDS011;6422;49.938;9.124;2024-02-26T02:33:00;0.80;;;0.80;;
12715;SDS011;6422;49.938;9.124;2024-02-26T02:35:25;1.37;;;0.97;;
12715;SDS011;6422;49.938;9.124;2024-02-26T02:37:54;2.23;;;1.00;;
12715;SDS011;6422;49.938;9.124;2024-02-26T02:40:20;0.80;;;0.60;;
12715;SDS011;6422;49.938;9.124;2024-02-26T02:42:45;1.30;;;1.00;;
12715;SDS011;6422;49.938;9.124;2024-02-26T02:45:10;0.97;;;0.83;;
12715;SDS011;6422;49.938;9.124;2024-02-26T02:47:36;1.33;;;0.73;;
12715;SDS011;6422;49.938;9.124;2024-02-26T02:50:01;0.80;;;0.70;;
12715;SDS011;6422;49.938;9.124;2024-02-26T02:52:26;0.80;;;0.70;;
12715;SDS011;6422;49.938;9.124;2024-02-26T02:54:51;1.10;;;0.60;;
12715;SDS011;6422;49.938;9.124;2024-02-26T02:57:16;1.03;;;0.93;;
12715;SDS011;6422;49.938;9.124;2024-02-26T02:59:41;1.23;;;1.13;;
12715;SDS011;6422;49.938;9.124;2024-02-26T03:02:07;1.27;;;1.07;;
12715;SDS011;6422;49.938;9.124;2024-02-26T03:04:32;1.15;;;0.85;;
12715;SDS011;6422;49.938;9.124;2024-02-26T03:06:57;2.77;;;1.17;;
12715;SDS011;6422;49.938;9.124;2024-02-26T03:09:22;4.60;;;1.13;;
12715;SDS011;6422;49.938;9.124;2024-02-26T03:11:48;1.87;;;0.80;;
12715;SDS011;6422;49.938;9.124;2024-02-26T03:14:13;1.00;;;0.80;;
12715;SDS011;6422;49.938;9.124;2024-02-26T03:16:38;1.50;;;0.93;;
12715;SDS011;6422;49.938;9.124;2024-02-26T03:19:04;1.30;;;0.80;;
12715;SDS011;6422;49.938;9.124;2024-02-26T03:21:29;1.67;;;1.17;;
12715;SDS011;6422;49.938;9.124;2024-02-26T03:23:54;2.15;;;1.23;;
12715;SDS011;6422;49.938;9.124;2024-02-26T03:26:19;2.20;;;1.13;;
12715;SDS011;6422;49.938;9.124;2024-02-26T03:28:44;1.57;;;1.10;;
12715;SDS011;6422;49.938;9.124;2024-02-26T03:31:09;1.57;;;0.70;;
12715;SDS011;6422;49.938;9.124;2024-02-26T03:33:35;2.90;;;0.90;;
12715;SDS011;6422;49.938;9.124;2024-02-26T03:36:01;3.37;;;1.37;;
12715;SDS011;6422;49.938;9.124;2024-02-26T03:38:26;1.25;;;1.05;;
12715;SDS011;6422;49.938;9.124;2024-02-26T03:40:51;1.20;;;0.80;;
12715;SDS011;6422;49.938;9.124;2024-02-26T03:43:16;1.23;;;0.70;;
12715;SDS011;6422;49.938;9.124;2024-02-26T03:45:41;1.67;;;0.90;;
12715;SDS011;6422;49.938;9.124;2024-02-26T03:48:07;4.70;;;1.20;;
12715;SDS011;6422;49.938;9.124;2024-02-26T03:50:32;1.97;;;1.20;;
12715;SDS011;6422;49.938;9.124;2024-02-26T03:52:57;1.40;;;1.00;;
12715;SDS011;6422;49.938;9.124;2024-02-26T03:55:23;2.97;;;1.27;;
12715;SDS011;6422;49.938;9.124;2024-02-26T03:57:50;0.87;;;0.77;;
12715;SDS011;6422;49.938;9.124;2024-02-26T04:00:15;1.20;;;0.93;;
12715;SDS011;6422;49.938;9.124;2024-02-26T04:02:41;1.37;;;1.10;;
12715;SDS011;6422;49.938;9.124;2024-02-26T04:05:08;2.08;;;1.23;;
12715;SDS011;6422;49.938;9.124;2024-02-26T04:07:34;2.60;;;1.40;;
12715;SDS011;6422;49.938;9.124;2024-02-26T04:09:59;3.22;;;1.33;;
12715;SDS011;6422;49.938;9.124;2024-02-26T04:12:25;0.90;;;0.80;;
12715;SDS011;6422;49.938;9.124;2024-02-26T04:14:50;3.97;;;1.58;;
12715;SDS011;6422;49.938;9.124;2024-02-26T04:17:15;1.65;;;1.02;;
12715;SDS011;6422;49.938;9.124;2024-02-26T04:19:40;1.98;;;1.08;;
12715;SDS011;6422;49.938;9.124;2024-02-26T04:22:05;1.10;;;1.00;;
12715;SDS011;6422;49.938;9.124;2024-02-26T04:24:31;4.27;;;1.60;;
12715;SDS011;6422;49.938;9.124;2024-02-26T04:26:56;1.20;;;1.10;;
12715;SDS011;6422;49.938;9.124;2024-02-26T04:29:21;1.90;;;1.13;;
12715;SDS011;6422;49.938;9.124;2024-02-26T04:31:46;2.67;;;1.37;;
12715;SDS011;6422;49.938;9.124;2024-02-26T04:34:11;4.20;;;1.27;;
12715;SDS011;6422;49.938;9.124;2024-02-26T04:36:36;1.20;;;0.90;;
12715;SDS011;6422;49.938;9.124;2024-02-26T04:39:02;1.63;;;1.13;;
12715;SDS011;6422;49.938;9.124;2024-02-26T04:41:27;1.40;;;1.17;;
12715;SDS011;6422;49.938;9.124;2024-02-26T04:43:53;1.10;;;0.90;;
12715;SDS011;6422;49.938;9.124;2024-02-26T04:46:18;2.37;;;0.90;;
12715;SDS011;6422;49.938;9.124;2024-02-26T04:48:43;2.10;;;1.67;;
12715;SDS011;6422;49.938;9.124;2024-02-26T04:51:10;1.00;;;0.70;;
12715;SDS011;6422;49.938;9.124;2024-02-26T04:53:35;1.42;;;0.93;;
12715;SDS011;6422;49.938;9.124;2024-02-26T04:56:00;1.67;;;1.20;;
12715;SDS011;6422;49.938;9.124;2024-02-26T04:58:26;2.72;;;1.95;;
12715;SDS011;6422;49.938;9.124;2024-02-26T05:00:51;18.73;;;1.40;;
12715;SDS011;6422;49.938;9.124;2024-02-26T05:03:16;3.00;;;1.20;;
12715;SDS011;6422;49.938;9.124;2024-02-26T05:05:44;2.20;;;1.40;;
12715;SDS011;6422;49.938;9.124;2024-02-26T05:08:09;1.30;;;1.00;;
12715;SDS011;6422;49.938;9.124;2024-02-26T05:10:35;1.00;;;0.80;;
12715;SDS011;6422;49.938;9.124;2024-02-26T05:13:04;4.27;;;1.30;;
12715;SDS011;6422;49.938;9.124;2024-02-26T05:15:29;2.27;;;1.10;;
12715;SDS011;6422;49.938;9.124;2024-02-26T05:17:54;2.00;;;1.33;;
12715;SDS011;6422;49.938;9.124;2024-02-26T05:20:19;1.70;;;1.03;;
12715;SDS011;6422;49.938;9.124;2024-02-26T05:22:45;1.13;;;0.93;;
12715;SDS011;6422;49.938;9.124;2024-02-26T05:25:10;1.43;;;1.13;;
12715;SDS011;6422;49.938;9.124;2024-02-26T05:27:35;1.30;;;0.90;;
12715;SDS011;6422;49.938;9.124;2024-02-26T05:30:00;1.47;;;1.33;;
12715;SDS011;6422;49.938;9.124;2024-02-26T05:32:26;1.20;;;1.00;;
12715;SDS011;6422;49.938;9.124;2024-02-26T05:34:51;3.37;;;1.23;;
12715;SDS011;6422;49.938;9.124;2024-02-26T05:37:16;1.10;;;0.83;;
12715;SDS011;6422;49.938;9.124;2024-02-26T05:39:41;3.20;;;1.27;;
12715;SDS011;6422;49.938;9.124;2024-02-26T05:42:06;1.90;;;0.80;;
12715;SDS011;6422;49.938;9.124;2024-02-26T05:44:33;1.10;;;0.83;;
12715;SDS011;6422;49.938;9.124;2024-02-26T05:46:59;4.10;;;1.30;;
12715;SDS011;6422;49.938;9.124;2024-02-26T05:49:24;3.15;;;0.93;;
12715;SDS011;6422;49.938;9.124;2024-02-26T05:51:49;2.00;;;1.10;;
12715;SDS011;6422;49.938;9.124;2024-02-26T05:54:15;2.70;;;0.90;;
12715;SDS011;6422;49.938;9.124;2024-02-26T05:56:40;1.37;;;1.13;;
12715;SDS011;6422;49.938;9.124;2024-02-26T05:59:05;3.63;;;1.23;;
12715;SDS011;6422;49.938;9.124;2024-02-26T06:01:30;1.10;;;1.00;;
12715;SDS011;6422;49.938;9.124;2024-02-26T06:03:55;6.13;;;1.53;;
12715;SDS011;6422;49.938;9.124;2024-02-26T06:06:21;3.88;;;1.15;;
12715;SDS011;6422;49.938;9.124;2024-02-26T06:08:47;1.40;;;0.80;;
12715;SDS011;6422;49.938;9.124;2024-02-26T06:11:14;6.70;;;1.60;;
12715;SDS011;6422;49.938;9.124;2024-02-26T06:13:39;2.20;;;1.27;;
12715;SDS011;6422;49.938;9.124;2024-02-26T06:16:04;1.70;;;1.23;;
12715;SDS011;6422;49.938;9.124;2024-02-26T06:18:30;2.07;;;1.20;;
12715;SDS011;6422;49.938;9.124;2024-02-26T06:20:55;3.53;;;1.67;;
12715;SDS011;6422;49.938;9.124;2024-02-26T06:23:20;1.63;;;1.20;;
12715;SDS011;6422;49.938;9.124;2024-02-26T06:25:45;5.03;;;1.90;;
12715;SDS011;6422;49.938;9.124;2024-02-26T06:28:12;2.43;;;1.40;;
12715;SDS011;6422;49.938;9.124;2024-02-26T06:30:38;2.97;;;1.33;;
12715;SDS011;6422;49.938;9.124;2024-02-26T06:33:03;4.43;;;1.90;;
12715;SDS011;6422;49.938;9.124;2024-02-26T06:35:28;3.40;;;1.70;;
12715;SDS011;6422;49.938;9.124;2024-02-26T06:37:53;2.30;;;1.30;;
12715;SDS011;6422;49.938;9.124;2024-02-26T06:40:19;4.40;;;2.00;;
12715;SDS011;6422;49.938;9.124;2024-02-26T06:42:44;2.07;;;1.50;;
12715;SDS011;6422;49.938;9.124;2024-02-26T06:45:09;2.30;;;1.17;;
12715;SDS011;6422;49.938;9.124;2024-02-26T06:47:34;3.33;;;1.60;;
12715;SDS011;6422;49.938;9.124;2024-02-26T06:50:00;1.67;;;1.10;;
12715;SDS011;6422;49.938;9.124;2024-02-26T06:52:25;3.43;;;2.20;;
12715;SDS011;6422;49.938;9.124;2024-02-26T06:54:51;2.50;;;1.53;;
12715;SDS011;6422;49.938;9.124;2024-02-26T06:57:17;4.23;;;1.03;;
12715;SDS011;6422;49.938;9.124;2024-02-26T06:59:42;4.93;;;1.30;;
12715;SDS011;6422;49.938;9.124;2024-02-26T07:02:11;1.83;;;1.20;;
12715;SDS011;6422;49.938;9.124;2024-02-26T07:04:36;2.00;;;1.60;;
12715;SDS011;6422;49.938;9.124;2024-02-26T07:07:02;2.77;;;1.57;;
12715;SDS011;6422;49.938;9.124;2024-02-26T07:09:27;1.53;;;1.07;;
12715;SDS011;6422;49.938;9.124;2024-02-26T07:11:52;1.83;;;1.48;;
12715;SDS011;6422;49.938;9.124;2024-02-26T07:14:17;2.20;;;1.10;;
12715;SDS011;6422;49.938;9.124;2024-02-26T07:16:42;1.23;;;1.13;;
12715;SDS011;6422;49.938;9.124;2024-02-26T07:19:07;2.03;;;1.02;;
12715;SDS011;6422;49.938;9.124;2024-02-26T07:21:32;1.95;;;1.25;;
12715;SDS011;6422;49.938;9.124;2024-02-26T07:23:58;3.43;;;1.60;;
12715;SDS011;6422;49.938;9.124;2024-02-26T07:26:23;1.80;;;1.20;;
12715;SDS011;6422;49.938;9.124;2024-02-26T07:28:51;0.90;;;0.73;;
12715;SDS011;6422;49.938;9.124;2024-02-26T07:31:17;2.90;;;1.10;;
12715;SDS011;6422;49.938;9.124;2024-02-26T07:33:42;3.07;;;1.47;;
12715;SDS011;6422;49.938;9.124;2024-02-26T07:36:07;1.93;;;1.00;;
12715;SDS011;6422;49.938;9.124;2024-02-26T07:38:32;2.60;;;1.60;;
12715;SDS011;6422;49.938;9.124;2024-02-26T07:40:58;3.20;;;1.93;;
12715;SDS011;6422;49.938;9.124;2024-02-26T07:43:23;1.70;;;1.10;;
12715;SDS011;6422;49.938;9.124;2024-02-26T07:45:48;3.08;;;1.33;;
12715;SDS011;6422;49.938;9.124;2024-02-26T07:48:13;2.90;;;1.77;;
12715;SDS011;6422;49.938;9.124;2024-02-26T07:50:38;2.23;;;1.50;;
12715;SDS011;6422;49.938;9.124;2024-02-26T07:53:05;2.93;;;1.97;;
12715;SDS011;6422;49.938;9.124;2024-02-26T07:55:30;2.25;;;1.73;;
12715;SDS011;6422;49.938;9.124;2024-02-26T07:57:56;1.73;;;1.20;;
12715;SDS011;6422;49.938;9.124;2024-02-26T08:00:21;2.07;;;1.33;;
12715;SDS011;6422;49.938;9.124;2024-02-26T08:02:46;1.80;;;1.10;;
12715;SDS011;6422;49.938;9.124;2024-02-26T08:05:12;2.60;;;1.50;;
12715;SDS011;6422;49.938;9.124;2024-02-26T08:07:37;2.83;;;2.23;;
12715;SDS011;6422;49.938;9.124;2024-02-26T08:10:02;1.70;;;1.45;;
12715;SDS011;6422;49.938;9.124;2024-02-26T08:12:27;2.00;;;1.30;;
12715;SDS011;6422;49.938;9.124;2024-02-26T08:14:52;1.95;;;1.15;;
12715;SDS011;6422;49.938;9.124;2024-02-26T08:17:18;5.55;;;1.35;;
12715;SDS011;6422;49.938;9.124;2024-02-26T08:19:43;2.83;;;1.60;;
12715;SDS011;6422;49.938;9.124;2024-02-26T08:22:08;1.90;;;1.37;;
12715;SDS011;6422;49.938;9.124;2024-02-26T08:24:35;4.37;;;1.93;;
12715;SDS011;6422;49.938;9.124;2024-02-26T08:27:00;2.83;;;1.93;;
12715;SDS011;6422;49.938;9.124;2024-02-26T08:29:25;2.20;;;1.10;;
12715;SDS011;6422;49.938;9.124;2024-02-26T08:31:50;3.33;;;1.97;;
12715;SDS011;6422;49.938;9.124;2024-02-26T08:34:15;2.53;;;2.03;;
12715;SDS011;6422;49.938;9.124;2024-02-26T08:36:41;2.50;;;1.67;;
12715;SDS011;6422;49.938;9.124;2024-02-26T08:39:08;1.97;;;1.40;;
12715;SDS011;6422;49.938;9.124;2024-02-26T08:41:33;3.80;;;1.50;;
12715;SDS011;6422;49.938;9.124;2024-02-26T08:43:59;2.83;;;1.60;;
12715;SDS011;6422;49.938;9.124;2024-02-26T08:46:24;3.33;;;1.20;;
12715;SDS011;6422;49.938;9.124;2024-02-26T08:48:49;2.80;;;1.40;;
12715;SDS011;6422;49.938;9.124;2024-02-26T08:51:14;2.43;;;1.27;;
12715;SDS011;6422;49.938;9.124;2024-02-26T08:53:40;5.40;;;2.30;;
12715;SDS011;6422;49.938;9.124;2024-02-26T08:56:05;2.90;;;2.30;;
12715;SDS011;6422;49.938;9.124;2024-02-26T08:58:30;10.53;;;1.97;;
12715;SDS011;6422;49.938;9.124;2024-02-26T09:00:56;3.10;;;2.30;;
12715;SDS011;6422;49.938;9.124;2024-02-26T09:03:21;5.70;;;2.10;;
12715;SDS011;6422;49.938;9.124;2024-02-26T09:05:46;3.87;;;2.03;;
12715;SDS011;6422;49.938;9.124;2024-02-26T09:08:12;2.57;;;1.73;;
12715;SDS011;6422;49.938;9.124;2024-02-26T09:10:38;10.50;;;1.93;;
12715;SDS011;6422;49.938;9.124;2024-02-26T09:13:03;3.40;;;1.53;;
12715;SDS011;6422;49.938;9.124;2024-02-26T09:15:28;3.53;;;2.23;;
12715;SDS011;6422;49.938;9.124;2024-02-26T09:17:53;3.00;;;1.50;;
12715;SDS011;6422;49.938;9.124;2024-02-26T09:20:18;6.20;;;1.83;;
12715;SDS011;6422;49.938;9.124;2024-02-26T09:22:45;2.80;;;1.50;;
12715;SDS011;6422;49.938;9.124;2024-02-26T09:25:10;5.17;;;2.00;;
12715;SDS011;6422;49.938;9.124;2024-02-26T09:27:35;4.27;;;2.00;;
12715;SDS011;6422;49.938;9.124;2024-02-26T09:30:01;2.85;;;1.90;;
12715;SDS011;6422;49.938;9.124;2024-02-26T09:32:26;3.30;;;2.55;;
12715;SDS011;6422;49.938;9.124;2024-02-26T09:34:51;8.70;;;2.60;;
12715;SDS011;6422;49.938;9.124;2024-02-26T09:37:16;2.40;;;1.50;;
12715;SDS011;6422;49.938;9.124;2024-02-26T09:39:41;10.13;;;2.55;;
12715;SDS011;6422;49.938;9.124;2024-02-26T09:42:07;3.83;;;1.90;;
12715;SDS011;6422;49.938;9.124;2024-02-26T09:44:35;2.20;;;1.53;;
12715;SDS011;6422;49.938;9.124;2024-02-26T09:47:03;3.00;;;1.57;;
12715;SDS011;6422;49.938;9.124;2024-02-26T09:49:29;3.87;;;2.47;;
12715;SDS011;6422;49.938;9.124;2024-02-26T09:51:54;3.70;;;1.90;;
12715;SDS011;6422;49.938;9.124;2024-02-26T09:54:21;3.80;;;2.50;;
12715;SDS011;6422;49.938;9.124;2024-02-26T09:56:46;7.37;;;1.83;;
12715;SDS011;6422;49.938;9.124;2024-02-26T09:59:15;2.00;;;1.50;;
12715;SDS011;6422;49.938;9.124;2024-02-26T10:01:41;5.60;;;2.40;;
12715;SDS011;6422;49.938;9.124;2024-02-26T10:04:07;3.70;;;2.20;;
12715;SDS011;6422;49.938;9.124;2024-02-26T10:06:33;7.43;;;1.30;;
12715;SDS011;6422;49.938;9.124;2024-02-26T10:08:59;4.17;;;2.03;;
12715;SDS011;6422;49.938;9.124;2024-02-26T10:11:24;4.73;;;2.27;;
12715;SDS011;6422;49.938;9.124;2024-02-26T10:13:50;6.30;;;1.70;;
12715;SDS011;6422;49.938;9.124;2024-02-26T10:16:15;2.70;;;1.50;;
12715;SDS011;6422;49.938;9.124;2024-02-26T10:18:47;2.33;;;1.43;;
12715;SDS011;6422;49.938;9.124;2024-02-26T10:21:12;3.63;;;1.80;;
12715;SDS011;6422;49.938;9.124;2024-02-26T10:23:38;2.33;;;1.70;;
12715;SDS011;6422;49.938;9.124;2024-02-26T10:26:03;3.65;;;1.95;;
12715;SDS011;6422;49.938;9.124;2024-02-26T10:28:29;3.00;;;1.23;;
12715;SDS011;6422;49.938;9.124;2024-02-26T10:30:54;3.80;;;2.03;;
12715;SDS011;6422;49.938;9.124;2024-02-26T10:33:20;1.67;;;1.50;;
12715;SDS011;6422;49.938;9.124;2024-02-26T10:35:45;6.10;;;2.40;;
12715;SDS011;6422;49.938;9.124;2024-02-26T10:38:11;2.33;;;1.93;;
12715;SDS011;6422;49.938;9.124;2024-02-26T10:40:37;3.63;;;1.83;;
12715;SDS011;6422;49.938;9.124;2024-02-26T10:43:02;3.40;;;1.60;;
12715;SDS011;6422;49.938;9.124;2024-02-26T10:45:27;3.10;;;2.20;;
12715;SDS011;6422;49.938;9.124;2024-02-26T10:47:52;2.80;;;2.07;;
12715;SDS011;6422;49.938;9.124;2024-02-26T10:50:18;2.60;;;1.30;;
12715;SDS011;6422;49.938;9.124;2024-02-26T10:52:44;2.80;;;1.53;;
12715;SDS011;6422;49.938;9.124;2024-02-26T10:55:12;3.60;;;1.90;;
12715;SDS011;6422;49.938;9.124;2024-02-26T10:57:39;10.13;;;2.17;;
12715;SDS011;6422;49.938;9.124;2024-02-26T11:00:05;2.87;;;1.77;;
12715;SDS011;6422;49.938;9.124;2024-02-26T11:02:31;4.03;;;2.13;;
12715;SDS011;6422;49.938;9.124;2024-02-26T11:04:57;7.40;;;2.57;;
12715;SDS011;6422;49.938;9.124;2024-02-26T11:07:23;2.23;;;1.50;;
12715;SDS011;6422;49.938;9.124;2024-02-26T11:09:48;4.93;;;2.80;;
12715;SDS011;6422;49.938;9.124;2024-02-26T11:12:17;3.10;;;1.37;;
12715;SDS011;6422;49.938;9.124;2024-02-26T11:14:43;3.67;;;1.70;;
12715;SDS011;6422;49.938;9.124;2024-02-26T11:17:09;2.63;;;1.50;;
12715;SDS011;6422;49.938;9.124;2024-02-26T11:19:35;11.60;;;2.70;;
12715;SDS011;6422;49.938;9.124;2024-02-26T11:22:00;3.07;;;1.70;;
12715;SDS011;6422;49.938;9.124;2024-02-26T11:24:26;9.90;;;2.10;;
12715;SDS011;6422;49.938;9.124;2024-02-26T11:26:52;5.63;;;2.83;;
12715;SDS011;6422;49.938;9.124;2024-02-26T11:29:27;2.33;;;1.50;;
12715;SDS011;6422;49.938;9.124;2024-02-26T11:31:53;3.50;;;2.30;;
12715;SDS011;6422;49.938;9.124;2024-02-26T11:34:18;3.57;;;1.57;;
12715;SDS011;6422;49.938;9.124;2024-02-26T11:36:43;3.53;;;2.10;;
12715;SDS011;6422;49.938;9.124;2024-02-26T11:39:10;5.00;;;1.50;;
12715;SDS011;6422;49.938;9.124;2024-02-26T11:41:37;2.57;;;1.50;;
12715;SDS011;6422;49.938;9.124;2024-02-26T11:44:03;3.57;;;1.90;;
12715;SDS011;6422;49.938;9.124;2024-02-26T11:46:32;3.50;;;1.50;;
12715;SDS011;6422;49.938;9.124;2024-02-26T11:48:58;3.63;;;1.77;;
12715;SDS011;6422;49.938;9.124;2024-02-26T11:51:27;2.37;;;1.70;;
12715;SDS011;6422;49.938;9.124;2024-02-26T11:53:52;3.00;;;1.93;;
12715;SDS011;6422;49.938;9.124;2024-02-26T11:58:47;9.97;;;4.53;;
12715;SDS011;6422;49.938;9.124;2024-02-26T12:01:35;4.03;;;2.63;;
12715;SDS011;6422;49.938;9.124;2024-02-26T12:04:00;3.10;;;1.77;;
12715;SDS011;6422;49.938;9.124;2024-02-26T12:06:26;6.23;;;1.50;;
12715;SDS011;6422;49.938;9.124;2024-02-26T12:08:52;3.70;;;2.00;;
12715;SDS011;6422;49.938;9.124;2024-02-26T12:11:17;4.15;;;2.13;;
12715;SDS011;6422;49.938;9.124;2024-02-26T12:13:45;3.40;;;1.58;;
12715;SDS011;6422;49.938;9.124;2024-02-26T12:16:12;2.87;;;1.27;;
12715;SDS011;6422;49.938;9.124;2024-02-26T12:18:37;2.50;;;1.73;;
12715;SDS011;6422;49.938;9.124;2024-02-26T12:21:03;2.20;;;1.80;;
12715;SDS011;6422;49.938;9.124;2024-02-26T12:23:28;10.97;;;2.20;;
12715;SDS011;6422;49.938;9.124;2024-02-26T12:25:58;3.43;;;2.00;;
12715;SDS011;6422;49.938;9.124;2024-02-26T12:28:23;4.67;;;2.27;;
12715;SDS011;6422;49.938;9.124;2024-02-26T12:30:48;8.80;;;2.50;;
12715;SDS011;6422;49.938;9.124;2024-02-26T12:33:13;3.08;;;1.52;;
12715;SDS011;6422;49.938;9.124;2024-02-26T12:35:38;3.27;;;1.63;;
12715;SDS011;6422;49.938;9.124;2024-02-26T12:38:04;2.33;;;1.50;;
12715;SDS011;6422;49.938;9.124;2024-02-26T12:40:29;3.20;;;1.70;;
12715;SDS011;6422;49.938;9.124;2024-02-26T12:42:54;3.53;;;1.80;;
12715;SDS011;6422;49.938;9.124;2024-02-26T12:45:20;3.50;;;2.07;;
12715;SDS011;6422;49.938;9.124;2024-02-26T12:47:45;2.23;;;1.57;;
12715;SDS011;6422;49.938;9.124;2024-02-26T12:50:11;4.37;;;1.73;;
12715;SDS011;6422;49.938;9.124;2024-02-26T12:52:40;1.83;;;0.97;;
12715;SDS011;6422;49.938;9.124;2024-02-26T12:55:06;3.17;;;2.17;;
12715;SDS011;6422;49.938;9.124;2024-02-26T12:57:34;3.60;;;1.90;;
12715;SDS011;6422;49.938;9.124;2024-02-26T12:59:59;2.87;;;1.67;;
12715;SDS011;6422;49.938;9.124;2024-02-26T13:02:25;3.23;;;2.10;;
12715;SDS011;6422;49.938;9.124;2024-02-26T13:04:51;1.67;;;1.27;;
12715;SDS011;6422;49.938;9.124;2024-02-26T13:07:17;3.20;;;2.13;;
12715;SDS011;6422;49.938;9.124;2024-02-26T13:09:42;2.47;;;1.43;;
12715;SDS011;6422;49.938;9.124;2024-02-26T13:12:08;10.03;;;2.33;;
12715;SDS011;6422;49.938;9.124;2024-02-26T13:14:33;3.17;;;2.00;;
12715;SDS011;6422;49.938;9.124;2024-02-26T13:16:59;5.13;;;2.93;;
12715;SDS011;6422;49.938;9.124;2024-02-26T13:19:25;6.67;;;3.30;;
12715;SDS011;6422;49.938;9.124;2024-02-26T13:21:50;11.60;;;5.27;;
12715;SDS011;6422;49.938;9.124;2024-02-26T13:24:15;13.85;;;4.88;;
12715;SDS011;6422;49.938;9.124;2024-02-26T13:26:41;6.37;;;4.03;;
12715;SDS011;6422;49.938;9.124;2024-02-26T13:29:06;5.20;;;2.10;;
12715;SDS011;6422;49.938;9.124;2024-02-26T13:31:32;5.43;;;2.83;;
12715;SDS011;6422;49.938;9.124;2024-02-26T13:34:03;4.63;;;2.53;;
12715;SDS011;6422;49.938;9.124;2024-02-26T13:36:28;12.82;;;3.28;;
12715;SDS011;6422;49.938;9.124;2024-02-26T13:38:54;12.82;;;4.57;;
12715;SDS011;6422;49.938;9.124;2024-02-26T13:41:19;4.73;;;2.20;;
12715;SDS011;6422;49.938;9.124;2024-02-26T13:43:45;8.50;;;4.37;;
12715;SDS011;6422;49.938;9.124;2024-02-26T13:46:11;3.00;;;1.37;;
12715;SDS011;6422;49.938;9.124;2024-02-26T13:48:37;9.30;;;1.87;;
12715;SDS011;6422;49.938;9.124;2024-02-26T13:51:03;5.40;;;2.38;;
12715;SDS011;6422;49.938;9.124;2024-02-26T13:53:28;8.77;;;3.87;;
12715;SDS011;6422;49.938;9.124;2024-02-26T13:55:53;4.72;;;2.47;;
12715;SDS011;6422;49.938;9.124;2024-02-26T13:58:18;10.60;;;4.47;;
12715;SDS011;6422;49.938;9.124;2024-02-26T14:00:47;14.80;;;6.93;;
12715;SDS011;6422;49.938;9.124;2024-02-26T14:03:13;14.60;;;5.83;;
12715;SDS011;6422;49.938;9.124;2024-02-26T14:05:38;7.53;;;2.90;;
12715;SDS011;6422;49.938;9.124;2024-02-26T14:08:03;3.33;;;2.03;;
12715;SDS011;6422;49.938;9.124;2024-02-26T14:10:28;1.60;;;1.20;;
12715;SDS011;6422;49.938;9.124;2024-02-26T14:12:53;2.75;;;1.40;;
12715;SDS011;6422;49.938;9.124;2024-02-26T14:15:18;9.73;;;2.80;;
12715;SDS011;6422;49.938;9.124;2024-02-26T14:17:44;6.20;;;2.92;;
12715;SDS011;6422;49.938;9.124;2024-02-26T14:20:10;8.30;;;4.23;;
12715;SDS011;6422;49.938;9.124;2024-02-26T14:22:35;9.67;;;3.70;;
12715;SDS011;6422;49.938;9.124;2024-02-26T14:25:00;2.13;;;1.33;;
12715;SDS011;6422;49.938;9.124;2024-02-26T14:27:25;6.75;;;1.80;;
12715;SDS011;6422;49.938;9.124;2024-02-26T14:29:51;15.43;;;6.00;;
12715;SDS011;6422;49.938;9.124;2024-02-26T14:32:16;4.38;;;2.83;;
12715;SDS011;6422;49.938;9.124;2024-02-26T14:34:42;3.70;;;1.63;;
12715;SDS011;6422;49.938;9.124;2024-02-26T14:37:07;3.35;;;1.27;;
12715;SDS011;6422;49.938;9.124;2024-02-26T14:39:32;4.53;;;2.13;;
12715;SDS011;6422;49.938;9.124;2024-02-26T14:41:58;9.07;;;4.07;;
12715;SDS011;6422;49.938;9.124;2024-02-26T14:44:23;3.30;;;2.10;;
12715;SDS011;6422;49.938;9.124;2024-02-26T14:46:49;5.27;;;2.20;;
12715;SDS011;6422;49.938;9.124;2024-02-26T14:49:14;4.13;;;2.47;;
12715;SDS011;6422;49.938;9.124;2024-02-26T14:51:40;4.00;;;2.30;;